CYDN

Dauphin Barker Airport

Dauphin, Manitoba, Canada
METAR CYDN 210700Z AUTO 22010KT 9SM CLR 16/M01 A3000 RMK SLP163 DENSITY ALT 1200FT
Observed Flight Rules
May-21 @ 07:00 UTC (19 minutes ago) Visual Flight Rules
Wind Visibility Clouds
220° at 10 knots 9 miles
  • Clear skies
Temperatures Readings
Current 16°C / 61°F
Dewpoint -1°C / 30°F
Humidity 31%
Altimeter 30" Hg
Pressure 1016.3 hPa
Elevation 305
METAR CYDN 210700Z AUTO 22010KT 9SM CLR 16/M01 A3000 RMK SLP163 DENSITY ALT 1200FT
Observed Flight Rules
May-21 @ 07:00 UTC
(19 minutes ago)
VFR
Wind Visibility
220° at 10 knots 9 miles
Clouds
  • Clear skies
Temperature Dewpoint
16°C / 61°F -1°C / 30°F
Humidity Altimeter Pressure
31% 30" Hg 1016.3 hPa